createdAt,value
2022-08-07T00:02:40.416Z,98482.13
2022-08-07T00:05:01.223Z,98478.78
2022-08-07T00:07:39.242Z,98473.38
2022-08-07T00:10:26.482Z,98469.81
2022-08-07T00:12:59.790Z,98474.88
2022-08-07T00:15:38.606Z,98463.91
2022-08-07T00:18:19.647Z,98466.75
2022-08-07T00:20:49.470Z,98469.69
2022-08-07T00:23:17.632Z,98471.00
2022-08-07T00:25:45.766Z,98477.28
2022-08-07T00:28:21.962Z,98476.09
2022-08-07T00:30:49.836Z,98475.16
2022-08-07T00:33:17.640Z,98474.22
2022-08-07T00:35:49.665Z,98473.88
2022-08-07T00:38:31.219Z,98475.06
2022-08-07T00:40:59.594Z,98475.16
2022-08-07T00:44:00.315Z,98477.03
2022-08-07T00:46:16.711Z,98482.72
2022-08-07T00:48:45.578Z,98477.16
2022-08-07T00:51:18.073Z,98476.44
2022-08-07T00:53:50.476Z,98481.91
2022-08-07T00:56:23.362Z,98479.88
2022-08-07T00:58:59.931Z,98481.91
2022-08-07T01:01:57.029Z,98471.00
2022-08-07T01:04:25.826Z,98472.59
2022-08-07T01:06:58.065Z,98472.91
2022-08-07T01:10:04.492Z,98480.44
2022-08-07T01:12:28.708Z,98465.19
2022-08-07T01:15:03.964Z,98469.03
2022-08-07T01:17:34.077Z,98467.72
2022-08-07T01:20:06.546Z,98465.44
2022-08-07T01:22:37.611Z,98472.31
2022-08-07T01:25:54.302Z,98464.88
2022-08-07T01:28:03.898Z,98469.34
2022-08-07T01:30:33.395Z,98476.91
2022-08-07T01:33:02.284Z,98468.56
2022-08-07T01:35:53.747Z,98465.34
2022-08-07T01:38:24.926Z,98475.63
2022-08-07T01:40:55.316Z,98477.16
2022-08-07T01:43:25.883Z,98478.69
2022-08-07T01:45:55.090Z,98483.91
2022-08-07T01:48:30.336Z,98477.97
2022-08-07T01:52:00.932Z,98487.50
2022-08-07T01:54:12.659Z,98474.00
2022-08-07T01:56:52.843Z,98472.63
2022-08-07T01:59:31.101Z,98475.50
2022-08-07T02:02:10.327Z,98475.66
2022-08-07T02:04:52.519Z,98467.06
2022-08-07T02:07:45.206Z,98466.31
2022-08-07T02:10:18.500Z,98462.72
2022-08-07T02:12:50.281Z,98467.13
2022-08-07T02:15:22.608Z,98459.91
2022-08-07T02:17:52.626Z,98464.16
2022-08-07T02:20:24.465Z,98457.97
2022-08-07T02:22:57.580Z,98458.81
2022-08-07T02:26:10.589Z,98456.47
2022-08-07T02:28:25.424Z,98449.38
2022-08-07T02:30:56.049Z,98451.13
2022-08-07T02:33:33.015Z,98451.34
2022-08-07T02:36:29.913Z,98450.53
2022-08-07T02:39:15.949Z,98448.06
2022-08-07T02:41:54.264Z,98452.88
2022-08-07T02:44:27.649Z,98446.03
2022-08-07T02:47:06.255Z,98441.31
2022-08-07T02:49:59.028Z,98439.78
2022-08-07T02:52:32.051Z,98438.75
2022-08-07T02:55:04.014Z,98426.69
2022-08-07T02:57:35.971Z,98435.66
2022-08-07T03:00:11.181Z,98437.03
2022-08-07T03:02:54.268Z,98431.00
2022-08-07T03:05:24.632Z,98425.88
2022-08-07T03:08:07.700Z,98432.53
2022-08-07T03:10:41.023Z,98423.75
2022-08-07T03:13:19.595Z,98423.94
2022-08-07T03:15:58.490Z,98422.06
2022-08-07T03:18:35.048Z,98416.63
2022-08-07T03:21:05.150Z,98416.00
2022-08-07T03:24:17.850Z,98430.63
2022-08-07T03:26:30.878Z,98423.31
2022-08-07T03:29:02.415Z,98425.97
2022-08-07T03:31:43.255Z,98420.53
2022-08-07T03:34:18.453Z,98427.84
2022-08-07T03:36:52.904Z,98426.44
2022-08-07T03:39:45.777Z,98431.66
2022-08-07T03:42:10.220Z,98434.34
2022-08-07T03:44:40.004Z,98430.66
2022-08-07T03:47:11.509Z,98433.94
2022-08-07T03:49:52.058Z,98435.72
2022-08-07T03:52:26.695Z,98444.13
2022-08-07T03:54:57.343Z,98429.81
2022-08-07T03:58:32.394Z,98431.41
2022-08-07T04:00:29.180Z,98432.84
2022-08-07T04:02:59.312Z,98434.56
2022-08-07T04:05:39.213Z,98433.97
2022-08-07T04:08:11.303Z,98439.22
2022-08-07T04:10:39.459Z,98437.91
2022-08-07T04:13:15.223Z,98440.50
2022-08-07T04:15:45.848Z,98443.44
2022-08-07T04:18:57.257Z,98441.19
2022-08-07T04:21:07.201Z,98443.88
2022-08-07T04:23:43.906Z,98438.00
2022-08-07T04:26:23.607Z,98441.38
2022-08-07T04:28:56.333Z,98447.28
2022-08-07T04:32:02.967Z,98445.47
2022-08-07T04:34:16.726Z,98449.97
2022-08-07T04:36:45.212Z,98446.69
2022-08-07T04:39:13.300Z,98455.69
2022-08-07T04:41:50.464Z,98451.03
2022-08-07T04:44:19.263Z,98453.59
2022-08-07T04:47:03.974Z,98447.72
2022-08-07T04:49:57.961Z,98452.69
2022-08-07T04:52:51.046Z,98453.53
2022-08-07T04:58:12.100Z,98462.88
2022-08-07T04:58:43.131Z,98454.63
2022-08-07T05:01:18.088Z,98457.41
2022-08-07T05:04:06.994Z,98452.44
2022-08-07T05:06:43.738Z,98450.78
2022-08-07T05:09:27.987Z,98445.09
2022-08-07T05:12:26.554Z,98443.16
2022-08-07T05:15:21.530Z,98454.72
2022-08-07T05:17:56.662Z,98449.06
2022-08-07T05:20:32.113Z,98448.31
2022-08-07T05:23:05.263Z,98452.97
2022-08-07T05:26:13.869Z,98449.25
2022-08-07T05:28:34.765Z,98444.50
2022-08-07T05:31:03.657Z,98451.56
2022-08-07T05:33:35.593Z,98456.31
2022-08-07T05:36:12.311Z,98450.91
2022-08-07T05:39:00.839Z,98457.53
2022-08-07T05:42:02.207Z,98448.47
2022-08-07T05:44:29.331Z,98464.50
2022-08-07T05:47:00.256Z,98453.16
2022-08-07T05:49:40.402Z,98460.06
2022-08-07T05:52:11.704Z,98457.09
2022-08-07T05:54:53.472Z,98457.41
2022-08-07T05:57:26.708Z,98458.47
2022-08-07T06:00:00.261Z,98457.81
2022-08-07T06:02:34.044Z,98459.19
2022-08-07T06:05:06.274Z,98463.75
2022-08-07T06:08:13.499Z,98457.28
2022-08-07T06:10:24.863Z,98463.38
2022-08-07T06:12:52.675Z,98463.56
2022-08-07T06:15:21.495Z,98458.97
2022-08-07T06:17:53.458Z,98461.53
2022-08-07T06:20:25.235Z,98457.28
2022-08-07T06:23:24.813Z,98454.72
2022-08-07T06:25:54.675Z,98451.06
2022-08-07T06:28:27.371Z,98462.94
2022-08-07T06:30:55.716Z,98463.81
2022-08-07T06:33:25.383Z,98464.34
2022-08-07T06:36:12.901Z,98461.66
2022-08-07T06:38:51.225Z,98471.75
2022-08-07T06:41:58.753Z,98457.19
2022-08-07T06:44:14.119Z,98459.03
2022-08-07T06:46:44.211Z,98459.94
2022-08-07T06:49:21.809Z,98464.31
2022-08-07T06:51:50.419Z,98463.03
2022-08-07T06:55:32.641Z,98463.00
2022-08-07T06:57:10.155Z,98468.34
2022-08-07T07:00:14.775Z,98465.72
2022-08-07T07:02:54.529Z,98467.44
2022-08-07T07:06:05.453Z,98463.16
2022-08-07T07:08:06.920Z,98459.16
2022-08-07T07:10:39.525Z,98457.97
2022-08-07T07:13:41.611Z,98468.78
2022-08-07T07:16:21.449Z,98458.19
2022-08-07T07:18:54.162Z,98455.97
2022-08-07T07:21:26.973Z,98457.97
2022-08-07T07:24:12.518Z,98460.34
2022-08-07T07:26:49.737Z,98451.34
2022-08-07T07:29:56.879Z,98449.38
2022-08-07T07:32:14.606Z,98453.38
2022-08-07T07:34:46.413Z,98452.66
2022-08-07T07:37:45.148Z,98449.94
2022-08-07T07:40:10.423Z,98443.97
2022-08-07T07:42:51.106Z,98435.91
2022-08-07T07:46:38.539Z,98433.28
2022-08-07T07:48:34.828Z,98427.25
2022-08-07T07:51:07.732Z,98437.75
2022-08-07T07:53:51.437Z,98429.63
2022-08-07T07:56:30.491Z,98429.50
2022-08-07T07:59:02.628Z,98427.78
2022-08-07T08:02:01.610Z,98428.81
2022-08-07T08:04:25.786Z,98420.16
2022-08-07T08:06:56.198Z,98418.94
2022-08-07T08:09:29.201Z,98415.28
2022-08-07T08:12:02.594Z,98405.16
2022-08-07T08:14:34.404Z,98417.38
2022-08-07T08:17:55.385Z,98407.22
2022-08-07T08:20:16.020Z,98414.94
2022-08-07T08:23:08.521Z,98420.03
2022-08-07T08:26:02.177Z,98410.03
2022-08-07T08:28:39.168Z,98407.59
2022-08-07T08:31:22.850Z,98402.34
2022-08-07T08:34:07.141Z,98397.06
2022-08-07T08:36:37.464Z,98410.22
2022-08-07T08:39:09.845Z,98394.88
2022-08-07T08:41:58.220Z,98405.31
2022-08-07T08:44:33.235Z,98400.22
2022-08-07T08:47:10.050Z,98389.00
2022-08-07T08:50:02.466Z,98394.81
2022-08-07T08:52:40.909Z,98388.34
2022-08-07T08:55:53.902Z,98393.69
2022-08-07T08:58:24.931Z,98384.91
2022-08-07T09:01:14.548Z,98379.41
2022-08-07T09:03:55.474Z,98389.66
2022-08-07T09:06:40.497Z,98381.41
2022-08-07T09:09:29.852Z,98385.53
2022-08-07T09:12:20.111Z,98386.59
2022-08-07T09:16:22.440Z,98381.41
2022-08-07T09:18:08.759Z,98395.59
2022-08-07T09:20:58.572Z,98394.59
2022-08-07T09:24:33.016Z,98378.31
2022-08-07T09:26:34.505Z,98381.97
2022-08-07T09:30:01.099Z,98374.22
2022-08-07T09:32:17.192Z,98379.63
2022-08-07T09:34:56.156Z,98380.50
2022-08-07T09:37:48.283Z,98381.44
2022-08-07T09:40:27.547Z,98373.00
2022-08-07T09:43:08.929Z,98367.56
2022-08-07T09:47:25.693Z,98369.06
2022-08-07T09:48:56.222Z,98364.81
2022-08-07T09:52:16.189Z,98380.50
2022-08-07T09:54:42.185Z,98365.50
2022-08-07T09:57:49.901Z,98351.16
2022-08-07T10:00:29.902Z,98354.75
2022-08-07T10:04:04.010Z,98352.50
2022-08-07T10:06:38.167Z,98359.06
2022-08-07T10:09:23.695Z,98341.09
2022-08-07T10:12:21.773Z,98341.88
2022-08-07T10:15:51.950Z,98334.59
2022-08-07T10:18:47.169Z,98339.47
2022-08-07T10:22:14.841Z,98333.81
2022-08-07T10:25:01.449Z,98314.31
2022-08-07T10:28:12.528Z,98321.78
2022-08-07T10:30:59.270Z,98319.69
2022-08-07T10:34:15.738Z,98319.00
2022-08-07T10:37:03.928Z,98321.88
2022-08-07T10:40:03.363Z,98318.13
2022-08-07T10:42:37.827Z,98311.13
2022-08-07T10:45:19.520Z,98301.72
2022-08-07T10:48:17.524Z,98299.31
2022-08-07T10:50:50.648Z,98301.41
2022-08-07T10:53:44.222Z,98293.38
2022-08-07T10:56:44.963Z,98292.44
2022-08-07T10:59:30.326Z,98281.63
2022-08-07T11:02:12.419Z,98288.31
2022-08-07T11:05:10.505Z,98277.56
2022-08-07T11:08:00.338Z,98283.69
2022-08-07T11:10:38.843Z,98278.34
2022-08-07T11:13:16.907Z,98267.66
2022-08-07T11:16:07.401Z,98264.53
2022-08-07T11:18:43.897Z,98267.53
2022-08-07T11:21:28.727Z,98260.47
2022-08-07T11:24:05.479Z,98260.97
2022-08-07T11:26:48.290Z,98254.88
2022-08-07T11:29:42.053Z,98261.22
2022-08-07T11:32:25.482Z,98251.38
2022-08-07T11:34:59.461Z,98249.53
2022-08-07T11:38:10.419Z,98261.31
2022-08-07T11:40:42.567Z,98247.88
2022-08-07T11:43:41.576Z,98247.03
2022-08-07T11:46:30.742Z,98241.50
2022-08-07T11:49:50.885Z,98235.50
2022-08-07T11:52:35.711Z,98223.75
2022-08-07T11:55:18.965Z,98237.72
2022-08-07T11:58:16.193Z,98233.00
2022-08-07T12:01:00.238Z,98226.47
2022-08-07T12:03:59.169Z,98231.13
2022-08-07T12:06:39.808Z,98238.25
2022-08-07T12:09:16.792Z,98247.06
2022-08-07T12:12:10.913Z,98239.34
2022-08-07T12:14:55.391Z,98224.00
2022-08-07T12:17:35.390Z,98235.78
2022-08-07T12:20:18.650Z,98230.59
2022-08-07T12:23:14.317Z,98218.25
2022-08-07T12:26:22.450Z,98232.53
2022-08-07T12:28:53.316Z,98235.81
2022-08-07T12:32:01.441Z,98222.66
2022-08-07T12:34:21.059Z,98234.16
2022-08-07T12:36:54.370Z,98213.88
2022-08-07T12:39:43.196Z,98218.78
2022-08-07T12:42:27.231Z,98216.34
2022-08-07T12:44:58.950Z,98216.88
2022-08-07T12:47:37.927Z,98212.75
2022-08-07T12:50:38.632Z,98213.88
2022-08-07T12:53:18.032Z,98205.63
2022-08-07T12:56:03.638Z,98207.22
2022-08-07T12:58:39.510Z,98187.47
2022-08-07T13:01:16.701Z,98195.94
2022-08-07T13:04:31.655Z,98191.81
2022-08-07T13:08:12.199Z,98192.56
2022-08-07T13:10:44.025Z,98192.97
2022-08-07T13:13:47.464Z,98190.06
2022-08-07T13:16:28.234Z,98180.22
2022-08-07T13:19:04.052Z,98184.03
2022-08-07T13:21:50.359Z,98176.25
2022-08-07T13:24:29.374Z,98176.47
2022-08-07T13:27:05.683Z,98170.16
2022-08-07T13:29:42.380Z,98171.25
2022-08-07T13:32:32.275Z,98168.56
2022-08-07T13:35:08.754Z,98170.41
2022-08-07T13:37:55.416Z,98178.41
2022-08-07T13:40:36.633Z,98162.25
2022-08-07T13:43:15.404Z,98163.28
2022-08-07T13:46:11.182Z,98168.00
2022-08-07T13:48:40.707Z,98153.69
2022-08-07T13:51:20.465Z,98150.47
2022-08-07T13:54:02.035Z,98144.81
2022-08-07T13:56:35.051Z,98153.03
2022-08-07T13:59:12.337Z,98147.38
2022-08-07T14:01:51.175Z,98137.78
2022-08-07T14:04:38.027Z,98137.16
2022-08-07T14:07:16.867Z,98138.03
2022-08-07T14:10:17.822Z,98144.03
2022-08-07T14:12:41.805Z,98129.22
2022-08-07T14:15:19.045Z,98130.91
2022-08-07T14:18:27.035Z,98138.56
2022-08-07T14:20:54.680Z,98119.34
2022-08-07T14:23:58.780Z,98123.00
2022-08-07T14:26:28.264Z,98114.97
2022-08-07T14:29:08.849Z,98121.66
2022-08-07T14:31:56.627Z,98118.88
2022-08-07T14:34:30.303Z,98120.22
2022-08-07T14:40:15.884Z,98113.31
2022-08-07T14:43:54.816Z,98102.91
2022-08-07T14:45:46.346Z,98095.53
2022-08-07T14:48:19.973Z,98105.25
2022-08-07T14:50:51.172Z,98102.41
2022-08-07T14:54:03.487Z,98102.28
2022-08-07T14:56:14.058Z,98102.88
2022-08-07T14:58:44.868Z,98094.78
2022-08-07T15:04:05.964Z,98091.09
2022-08-07T15:06:35.809Z,98098.47
2022-08-07T15:09:57.515Z,98087.13
2022-08-07T15:18:02.401Z,98099.31
2022-08-07T15:20:54.709Z,98096.81
2022-08-07T15:26:22.356Z,98076.41
2022-08-07T15:28:59.446Z,98078.84
2022-08-07T15:31:57.862Z,98077.56
2022-08-07T15:34:26.274Z,98075.22
2022-08-07T15:37:03.024Z,98071.00
2022-08-07T15:39:57.869Z,98069.91
2022-08-07T15:42:51.573Z,98070.59
2022-08-07T15:45:55.481Z,98073.28
2022-08-07T15:51:16.847Z,98065.72
2022-08-07T15:53:53.300Z,98063.22
2022-08-07T15:56:25.386Z,98061.84
2022-08-07T15:58:59.235Z,98067.31
2022-08-07T16:01:38.475Z,98062.91
2022-08-07T16:04:14.767Z,98067.34
2022-08-07T16:06:49.099Z,98059.72
2022-08-07T16:09:23.236Z,98059.09
2022-08-07T16:12:02.986Z,98048.88
2022-08-07T16:14:59.073Z,98051.91
2022-08-07T16:18:02.610Z,98054.44
2022-08-07T16:20:56.804Z,98050.81
2022-08-07T16:23:58.672Z,98047.09
2022-08-07T16:26:59.272Z,98046.53
2022-08-07T16:30:11.303Z,98041.00
2022-08-07T16:32:46.312Z,98039.84
2022-08-07T16:35:51.751Z,98038.56
2022-08-07T16:38:57.299Z,98031.56
2022-08-07T16:41:41.458Z,98037.22
2022-08-07T16:45:15.501Z,98038.03
2022-08-07T16:48:02.646Z,98036.94
2022-08-07T16:51:20.484Z,98039.13
2022-08-07T16:54:06.012Z,98031.44
2022-08-07T16:56:53.517Z,98035.56
2022-08-07T16:59:46.992Z,98037.81
2022-08-07T17:02:51.149Z,98039.50
2022-08-07T17:06:01.975Z,98036.94
2022-08-07T17:09:08.848Z,98040.53
2022-08-07T17:12:04.278Z,98035.41
2022-08-07T17:14:33.488Z,98037.94
2022-08-07T17:17:05.865Z,98036.09
2022-08-07T17:20:01.979Z,98041.38
2022-08-07T17:22:37.846Z,98043.28
2022-08-07T17:25:15.106Z,98044.88
2022-08-07T17:27:57.916Z,98041.03
2022-08-07T17:30:29.488Z,98039.19
2022-08-07T17:33:39.146Z,98045.22
2022-08-07T17:36:03.731Z,98043.06
2022-08-07T17:38:37.441Z,98041.19
2022-08-07T17:42:03.755Z,98049.16
2022-08-07T17:44:06.626Z,98047.84
2022-08-07T17:46:44.087Z,98047.59
2022-08-07T17:49:23.208Z,98050.59
2022-08-07T17:52:01.281Z,98050.34
2022-08-07T17:54:53.820Z,98058.31
2022-08-07T17:57:56.077Z,98058.06
2022-08-07T18:00:33.122Z,98053.97
2022-08-07T18:03:18.246Z,98052.06
2022-08-07T18:06:03.523Z,98056.44
2022-08-07T18:09:01.139Z,98059.44
2022-08-07T18:12:06.676Z,98058.09
2022-08-07T18:14:28.911Z,98059.50
2022-08-07T18:17:01.151Z,98063.31
2022-08-07T18:21:11.871Z,98059.75
2022-08-07T18:22:34.149Z,98062.53
2022-08-07T18:25:19.041Z,98063.88
2022-08-07T18:28:35.760Z,98074.84
2022-08-07T18:31:08.513Z,98073.72
2022-08-07T18:33:55.057Z,98075.09
2022-08-07T18:36:33.752Z,98073.50
2022-08-07T18:40:06.961Z,98070.47
2022-08-07T18:42:13.382Z,98069.34
2022-08-07T18:45:44.541Z,98083.34
2022-08-07T18:48:00.945Z,98089.38
2022-08-07T18:50:46.090Z,98087.44
2022-08-07T18:53:39.231Z,98087.72
2022-08-07T18:56:14.808Z,98092.94
2022-08-07T18:58:56.882Z,98098.69
2022-08-07T19:02:31.729Z,98092.38
2022-08-07T19:04:54.911Z,98099.47
2022-08-07T19:07:34.596Z,98103.31
2022-08-07T19:10:12.075Z,98101.66
2022-08-07T19:12:58.107Z,98114.41
2022-08-07T19:16:04.215Z,98107.91
2022-08-07T19:18:37.244Z,98122.13
2022-08-07T19:21:47.692Z,98124.88
2022-08-07T19:24:10.653Z,98130.03
2022-08-07T19:27:16.901Z,98128.69
2022-08-07T19:31:04.231Z,98131.97
2022-08-07T19:32:42.322Z,98143.72
2022-08-07T19:35:19.242Z,98140.41
2022-08-07T19:37:56.886Z,98140.69
2022-08-07T19:40:31.532Z,98135.72
2022-08-07T19:43:03.018Z,98142.56
2022-08-07T19:46:07.218Z,98147.22
2022-08-07T19:48:42.982Z,98151.25
2022-08-07T19:51:50.517Z,98156.94
2022-08-07T19:54:31.664Z,98156.72
2022-08-07T19:58:01.028Z,98156.19
2022-08-07T19:59:53.396Z,98153.72
2022-08-07T20:02:31.216Z,98153.94
2022-08-07T20:05:07.663Z,98163.78
2022-08-07T20:07:47.027Z,98155.88
2022-08-07T20:10:36.245Z,98160.06
2022-08-07T20:13:23.917Z,98156.25
2022-08-07T20:15:58.202Z,98153.00
2022-08-07T20:18:33.406Z,98149.13
2022-08-07T20:21:14.483Z,98152.16
2022-08-07T20:23:58.046Z,98154.88
2022-08-07T20:26:38.777Z,98157.84
2022-08-07T20:29:48.401Z,98158.13
2022-08-07T20:32:11.581Z,98162.41
2022-08-07T20:34:54.137Z,98171.97
2022-08-07T20:37:30.010Z,98164.91
2022-08-07T20:40:05.398Z,98163.25
2022-08-07T20:42:56.398Z,98169.47
2022-08-07T20:45:33.721Z,98167.00
2022-08-07T20:48:25.936Z,98167.25
2022-08-07T20:51:00.922Z,98176.28
2022-08-07T20:54:03.534Z,98174.56
2022-08-07T20:56:26.042Z,98180.03
2022-08-07T20:58:58.692Z,98169.63
2022-08-07T21:01:36.313Z,98163.81
2022-08-07T21:04:21.750Z,98166.56
2022-08-07T21:06:55.003Z,98168.44
2022-08-07T21:09:29.933Z,98163.81
2022-08-07T21:12:28.870Z,98162.41
2022-08-07T21:14:58.179Z,98165.13
2022-08-07T21:18:06.117Z,98160.44
2022-08-07T21:20:29.820Z,98162.88
2022-08-07T21:23:08.072Z,98168.56
2022-08-07T21:25:56.129Z,98168.81
2022-08-07T21:28:48.888Z,98175.84
2022-08-07T21:31:49.901Z,98171.44
2022-08-07T21:34:26.667Z,98167.34
2022-08-07T21:37:03.638Z,98168.34
2022-08-07T21:39:45.378Z,98160.38
2022-08-07T21:42:42.857Z,98165.00
2022-08-07T21:45:24.382Z,98160.31
2022-08-07T21:48:27.671Z,98160.50
2022-08-07T21:51:03.276Z,98166.78
2022-08-07T21:53:37.038Z,98173.06
2022-08-07T21:56:36.062Z,98170.53
2022-08-07T21:59:09.270Z,98165.03
2022-08-07T22:02:07.462Z,98170.47
2022-08-07T22:04:38.024Z,98173.16
2022-08-07T22:07:13.129Z,98167.66
2022-08-07T22:09:53.641Z,98173.63
2022-08-07T22:12:31.772Z,98170.56
2022-08-07T22:16:42.409Z,98174.63
2022-08-07T22:17:58.138Z,98174.63
2022-08-07T22:20:35.435Z,98168.84
2022-08-07T22:23:16.213Z,98175.81
2022-08-07T22:25:52.271Z,98181.25
2022-08-07T22:28:31.254Z,98178.25
2022-08-07T22:31:45.537Z,98186.94
2022-08-07T22:34:12.880Z,98187.97
2022-08-07T22:36:48.692Z,98190.63
2022-08-07T22:39:31.576Z,98183.78
2022-08-07T22:42:53.710Z,98187.59
2022-08-07T22:46:40.499Z,98191.91
2022-08-07T22:48:31.712Z,98193.47
2022-08-07T22:51:16.003Z,98198.56
2022-08-07T22:54:06.951Z,98201.84
2022-08-07T22:56:48.538Z,98212.19
2022-08-07T22:59:50.829Z,98206.41
2022-08-07T23:02:48.188Z,98208.47
2022-08-07T23:06:09.904Z,98216.09
2022-08-07T23:08:58.545Z,98220.63
2022-08-07T23:11:59.025Z,98221.97
2022-08-07T23:14:48.409Z,98222.94
2022-08-07T23:17:41.717Z,98218.56
2022-08-07T23:20:40.719Z,98213.19
2022-08-07T23:24:05.112Z,98221.47
2022-08-07T23:26:50.608Z,98220.16
2022-08-07T23:30:39.407Z,98222.38
2022-08-07T23:34:33.726Z,98225.66
2022-08-07T23:36:17.074Z,98230.31
2022-08-07T23:39:00.196Z,98231.28
2022-08-07T23:42:04.050Z,98230.97
2022-08-07T23:44:52.234Z,98227.41
2022-08-07T23:47:29.921Z,98232.16
2022-08-07T23:50:36.799Z,98239.50
2022-08-07T23:53:22.846Z,98227.22
2022-08-07T23:56:21.160Z,98230.69
2022-08-07T23:59:00.113Z,98231.19
